Queen Of Coquitlam — CZ8058 — position and weather

sailwx.info

Track history (hours):
 
Tides and Currents Weather Stations Pressure Air Temp Water Temp Dewpoint Dewpoint Depression Visibility Wind Speed Wind Dir Waves Ship Positions

Queen Of Coquitlam

Last reported at 2018-Nov-11 02:32 UTC. Time now 2018-Nov-15 19:39 UTC.
Position N 49°06' W 123°26'.

Length 139 m; draft 4 m.

Type: Passenger vessel. MMSI: 316001249.

Date/timePositionNaut miles runAvg speedWind from/ knotsBaromVisibWave heightAir tempDewpointWater temp
2018-Nov-11 02:32N 49°06' W 123°26'918.3
2018-Nov-11 02:03N 49°01' W 123°15'4 8.9
2018-Nov-11 01:33N 49°00' W 123°08'2 4.9
2018-Nov-11 01:02N 48°60' W 123°12'918.7
2018-Nov-11 00:32N 49°03' W 123°25'1019.1
2018-Nov-11 00:02N 49°09' W 123°37'918.6
2018-Nov-10 23:32N 49°13' W 123°49'4 8.4
2018-Nov-10 23:02N 49°10' W 123°53'0 0.2
2018-Nov-10 22:32N 49°10' W 123°53'714.5
2018-Nov-10 22:02N 49°12' W 123°43'1020.1
2018-Nov-10 21:32N 49°07' W 123°29'1020.2
2018-Nov-10 21:02N 49°02' W 123°16'611.1
2018-Nov-10 20:32N 49°00' W 123°08'0 1.0
2018-Nov-10 20:02N 49°00' W 123°09'1019.9
2018-Nov-10 19:32N 49°03' W 123°23'1021.1
2018-Nov-10 19:02N 49°09' W 123°36'1020.8
2018-Nov-10 18:32N 49°14' W 123°50'5 9.6
2018-Nov-10 18:02N 49°10' W 123°53'1 1.4
2018-Nov-10 17:32N 49°10' W 123°53'816.2
2018-Nov-10 17:02N 49°11' W 123°41'1020.1
2018-Nov-10 16:32N 49°07' W 123°27'1020.6
2018-Nov-10 16:03N 49°01' W 123°14'4 8.3
2018-Nov-10 15:32N 49°00' W 123°08'4 8.5
2018-Nov-10 15:02N 49°00' W 123°14'918.0
2018-Nov-10 14:32N 49°04' W 123°27'918.6
2018-Nov-10 14:02N 49°10' W 123°38'917.8
2018-Nov-10 13:32N 49°13' W 123°51'4 6.3
2018-Nov-10 12:58N 49°10' W 123°53'0 0.0
2018-Nov-10 11:16N 49°10' W 123°53'0 0.0
2018-Nov-10 10:28N 49°10' W 123°53'0 0.0
2018-Nov-10 09:58N 49°10' W 123°53'0 0.0
2018-Nov-10 09:28N 49°10' W 123°53'510.8
2018-Nov-10 09:03N 49°13' W 123°49'1020.1
2018-Nov-10 08:32N 49°10' W 123°35'1020.6
2018-Nov-10 08:02N 49°04' W 123°21'1019.0
2018-Nov-10 07:32N 49°00' W 123°08'0 0.5
2018-Nov-10 07:03N 49°00' W 123°08'815.2
2018-Nov-10 06:32N 49°01' W 123°20'1121.0
2018-Nov-10 06:02N 49°07' W 123°32'1020.9
2018-Nov-10 05:32N 49°13' W 123°46'510.8
2018-Nov-10 05:02N 49°10' W 123°53'0 0.0
2018-Nov-10 04:32N 49°10' W 123°53'510.5
2018-Nov-10 04:02N 49°13' W 123°48'1019.6
2018-Nov-10 03:32N 49°09' W 123°34'1019.7
2018-Nov-10 03:02N 49°04' W 123°21'918.8
2018-Nov-10 02:32N 49°00' W 123°08'0 0.5
2018-Nov-10 02:02N 49°00' W 123°08'3 5.7
2018-Nov-10 01:32N 48°60' W 123°12'1019.5
2018-Nov-10 01:02N 49°04' W 123°26'1020.9
2018-Nov-10 00:32N 49°10' W 123°39'1019.0
2018-Nov-10 00:02N 49°12' W 123°53'2 4.3
2018-Nov-09 23:31N 49°10' W 123°53'0 0.0
2018-Nov-09 22:54N 49°10' W 123°53'2 6.2
2018-Nov-09 22:32N 49°12' W 123°53'918.8
2018-Nov-09 22:02N 49°11' W 123°39'1020.1
2018-Nov-09 21:32N 49°06' W 123°25'1020.3
2018-Nov-09 21:02N 49°01' W 123°12'3 5.3
2018-Nov-09 20:33N 49°00' W 123°08'3 6.8
2018-Nov-09 20:02N 49°00' W 123°13'1020.3
2018-Nov-09 19:32N 49°05' W 123°27'1020.8
2018-Nov-09 19:02N 49°11' W 123°40'917.1
2018-Nov-09 18:32N 49°11' W 123°53'1 2.2
2018-Nov-09 18:01N 49°10' W 123°53'611.9
2018-Nov-09 17:32N 49°13' W 123°46'1019.9
2018-Nov-09 17:02N 49°08' W 123°32'1020.3
2018-Nov-09 16:32N 49°03' W 123°19'815.7
2018-Nov-09 16:03N 49°00' W 123°08'0 0.1
2018-Nov-09 15:33N 49°00' W 123°08'2 4.8
2018-Nov-09 15:02N 49°00' W 123°12'1019.4
2018-Nov-09 14:32N 49°04' W 123°25'1020.1
2018-Nov-09 14:02N 49°10' W 123°38'1019.0
2018-Nov-09 13:32N 49°13' W 123°51'3 1.6
2018-Nov-09 11:36N 49°10' W 123°53'0 0.0
2018-Nov-09 10:45N 49°10' W 123°53'0 0.0
2018-Nov-09 10:33N 49°10' W 123°53'5 9.1
2018-Nov-09 10:02N 49°13' W 123°49'1020.3
2018-Nov-09 09:32N 49°17' W 123°35'1020.2
2018-Nov-09 09:02N 49°21' W 123°20'3 6.5
2018-Nov-09 08:33N 49°23' W 123°16'2 4.5
2018-Nov-09 08:02N 49°21' W 123°19'1020.0
2018-Nov-09 07:32N 49°17' W 123°33'1020.7
2018-Nov-09 07:02N 49°14' W 123°48'6 7.1
2018-Nov-09 06:08N 49°12' W 123°57'0 1.6
2018-Nov-09 06:02N 49°12' W 123°57'816.7
2018-Nov-09 05:32N 49°15' W 123°46'1019.8
2018-Nov-09 05:02N 49°18' W 123°31'1019.2
2018-Nov-09 04:32N 49°23' W 123°18'1 2.6
2018-Nov-09 04:02N 49°23' W 123°16'3 6.1
2018-Nov-09 03:32N 49°21' W 123°20'1020.4
2018-Nov-09 03:02N 49°17' W 123°34'1020.9
2018-Nov-09 02:32N 49°14' W 123°50'510.6
2018-Nov-09 02:02N 49°12' W 123°57'0 0.0
2018-Nov-09 01:32N 49°12' W 123°57'714.3
2018-Nov-09 01:02N 49°15' W 123°48'1020.0
2018-Nov-09 00:33N 49°18' W 123°33'918.0
2018-Nov-09 00:02N 49°21' W 123°20'3 5.9
2018-Nov-08 23:33N 49°23' W 123°16'0 0.0
2018-Nov-08 23:03N 49°23' W 123°16'1 2.9
2018-Nov-08 22:32N 49°22' W 123°18'918.1
2018-Nov-08 22:02N 49°17' W 123°30'918.9
2018-Nov-08 21:32N 49°15' W 123°44'916.4
2018-Nov-08 20:59N 49°12' W 123°57'0 0.2
2018-Nov-08 20:23N 49°12' W 123°57'618.1
2018-Nov-08 20:02N 49°15' W 123°49'1020.2
2018-Nov-08 19:32N 49°18' W 123°34'917.7
2018-Nov-08 19:02N 49°20' W 123°21'4 8.0
2018-Nov-08 18:32N 49°23' W 123°16'2 3.9
2018-Nov-08 18:02N 49°22' W 123°19'1019.8
2018-Nov-08 17:32N 49°17' W 123°32'1021.0
2018-Nov-08 17:02N 49°14' W 123°48'713.3
2018-Nov-08 16:32N 49°12' W 123°57'0 0.1
2018-Nov-08 15:55N 49°12' W 123°57'616.2
2018-Nov-08 15:32N 49°15' W 123°49'1019.8
2018-Nov-08 15:02N 49°18' W 123°35'1019.6
2018-Nov-08 14:32N 49°20' W 123°20'3 6.7
2018-Nov-08 14:02N 49°23' W 123°16'0 0.0
2018-Nov-08 13:32N 49°23' W 123°16'0 0.0
2018-Nov-08 13:02N 49°23' W 123°16'0 0.0
2018-Nov-08 12:32N 49°23' W 123°16'0 0.0
2018-Nov-08 12:02N 49°23' W 123°16'0 0.0
2018-Nov-08 11:32N 49°23' W 123°16'0 0.0
2018-Nov-08 11:02N 49°23' W 123°16'0 0.0
2018-Nov-08 10:32N 49°23' W 123°16'0 0.0
2018-Nov-08 10:02N 49°23' W 123°16'0 0.0
2018-Nov-08 09:32N 49°23' W 123°16'0 0.0
2018-Nov-08 09:02N 49°23' W 123°16'0 0.0
2018-Nov-08 08:32N 49°23' W 123°16'0 0.0
2018-Nov-08 08:02N 49°23' W 123°16'0 0.0
2018-Nov-08 07:32N 49°23' W 123°16'0 0.1
2018-Nov-08 07:02N 49°23' W 123°16'0 0.1
2018-Nov-08 06:32N 49°23' W 123°16'0 0.1
2018-Nov-08 06:02N 49°23' W 123°16'0 0.1
2018-Nov-08 05:32N 49°23' W 123°16'0 0.0
2018-Nov-08 05:02N 49°23' W 123°16'0 0.0
2018-Nov-08 04:32N 49°23' W 123°16'0 0.0
2018-Nov-08 04:02N 49°23' W 123°16'1 1.5
2018-Nov-08 03:32N 49°23' W 123°17'918.6
2018-Nov-08 03:02N 49°17' W 123°28'1020.6
2018-Nov-08 02:32N 49°15' W 123°44'918.6
2018-Nov-08 02:03N 49°12' W 123°57'0 0.7
2018-Nov-08 01:32N 49°12' W 123°57'713.8
2018-Nov-08 01:02N 49°15' W 123°48'619.8
2018-Nov-08 00:43N 49°17' W 123°39'420.3
2018-Nov-08 00:32N 49°18' W 123°34'119.8
2018-Nov-08 00:29N 49°18' W 123°32'919.6
2018-Nov-08 00:02N 49°21' W 123°19'2 4.8
2018-Nov-07 23:33N 49°23' W 123°16'0 0.0
2018-Nov-07 23:03N 49°23' W 123°16'1 2.0
2018-Nov-07 22:32N 49°23' W 123°18'918.3
2018-Nov-07 22:02N 49°18' W 123°30'1019.0
2018-Nov-07 21:32N 49°15' W 123°44'918.6
2018-Nov-07 21:02N 49°12' W 123°57'0 0.6
2018-Nov-07 20:29N 49°12' W 123°57'511.0
2018-Nov-07 20:02N 49°14' W 123°51'1019.7
2018-Nov-07 19:32N 49°17' W 123°37'1019.8
2018-Nov-07 19:02N 49°19' W 123°22'5 9.7
2018-Nov-07 18:32N 49°23' W 123°16'1 1.5
2018-Nov-07 18:02N 49°23' W 123°17'1019.6
2018-Nov-07 17:32N 49°18' W 123°30'1121.0
2018-Nov-07 17:02N 49°15' W 123°45'816.1
2018-Nov-07 16:31N 49°12' W 123°57'0 0.4
2018-Nov-07 16:02N 49°12' W 123°57'918.2
2018-Nov-07 15:33N 49°16' W 123°45'1020.1
2018-Nov-07 15:03N 49°18' W 123°30'1019.5
2018-Nov-07 14:32N 49°23' W 123°17'1 1.5
2018-Nov-07 14:03N 49°23' W 123°16'0 0.0
2018-Nov-07 13:31N 49°23' W 123°16'0 0.0
2018-Nov-07 13:02N 49°23' W 123°16'0 0.0
2018-Nov-07 12:32N 49°23' W 123°16'0 0.0
2018-Nov-07 12:02N 49°23' W 123°16'0 0.0
2018-Nov-07 11:32N 49°23' W 123°16'0 0.0
2018-Nov-07 11:02N 49°23' W 123°16'0 0.0
2018-Nov-07 10:32N 49°23' W 123°16'0 0.0
2018-Nov-07 10:02N 49°23' W 123°16'0 0.0
2018-Nov-07 09:32N 49°23' W 123°16'0 0.0
2018-Nov-07 09:02N 49°23' W 123°16'0 0.0
2018-Nov-07 08:32N 49°23' W 123°16'0 0.0
2018-Nov-07 08:02N 49°23' W 123°16'0 0.0
2018-Nov-07 07:32N 49°23' W 123°16'0 0.1
2018-Nov-07 07:02N 49°23' W 123°16'0 0.1
2018-Nov-07 06:32N 49°23' W 123°16'0 0.1
2018-Nov-07 06:02N 49°23' W 123°16'0 0.1
2018-Nov-07 05:32N 49°23' W 123°16'0 0.0
2018-Nov-07 05:02N 49°23' W 123°16'0 0.0
2018-Nov-07 04:32N 49°23' W 123°16'0 0.0
2018-Nov-06 23:30N 49°23' W 123°16'0 0.0
2018-Nov-06 23:03N 49°23' W 123°16'0 0.0
2018-Nov-06 23:00N 49°23' W 123°16'1110.7
2018-Nov-06 22:01N 49°17' W 123°31'1019.0
2018-Nov-06 21:30N 49°15' W 123°45'818.9
2018-Nov-06 21:03N 49°12' W 123°57'1 7.6
2018-Nov-06 20:59N 49°12' W 123°57'0 0.1
2018-Nov-06 20:20N 49°12' W 123°57'413.0
2018-Nov-06 20:03N 49°14' W 123°53'119.8
2018-Nov-06 20:01N 49°14' W 123°51'1020.3
2018-Nov-06 19:30N 49°17' W 123°37'920.1
2018-Nov-06 19:03N 49°19' W 123°23'120.6
2018-Nov-06 19:00N 49°20' W 123°21'4 8.9
2018-Nov-06 18:30N 49°23' W 123°16'1 1.3
2018-Nov-06 18:03N 49°23' W 123°16'111.9
2018-Nov-06 18:00N 49°23' W 123°17'918.7
2018-Nov-06 17:30N 49°18' W 123°29'919.8
2018-Nov-06 17:03N 49°15' W 123°42'119.2
2018-Nov-06 17:00N 49°15' W 123°44'917.8
2018-Nov-06 16:28N 49°12' W 123°57'0 0.1
2018-Nov-06 16:03N 49°12' W 123°57'0 0.3
2018-Nov-06 15:59N 49°12' W 123°57'815.7
2018-Nov-06 15:30N 49°15' W 123°47'919.5
2018-Nov-06 15:03N 49°18' W 123°34'119.4
2018-Nov-06 15:00N 49°18' W 123°33'918.7
2018-Nov-06 14:30N 49°21' W 123°19'2 5.1
2018-Nov-06 14:03N 49°23' W 123°16'0 0.0
2018-Nov-06 14:00N 49°23' W 123°16'0 0.0
2018-Nov-06 13:25N 49°23' W 123°16'0 0.0
2018-Nov-06 13:01N 49°23' W 123°16'0 0.0
2018-Nov-06 12:58N 49°23' W 123°16'0 0.0
2018-Nov-06 12:25N 49°23' W 123°16'0 0.0
2018-Nov-06 12:01N 49°23' W 123°16'0 0.0
2018-Nov-06 11:58N 49°23' W 123°16'0 0.0
2018-Nov-06 11:28N 49°23' W 123°16'0 0.0
2018-Nov-06 11:01N 49°23' W 123°16'0 0.0
2018-Nov-06 10:58N 49°23' W 123°16'0 0.0
2018-Nov-06 10:25N 49°23' W 123°16'0 0.0
2018-Nov-06 10:01N 49°23' W 123°16'0 0.0
2018-Nov-06 09:55N 49°23' W 123°16'0 0.0
2018-Nov-06 09:25N 49°23' W 123°16'0 0.0
2018-Nov-06 09:01N 49°23' W 123°16'0 0.0
2018-Nov-06 08:58N 49°23' W 123°16'0 0.0
2018-Nov-06 08:28N 49°23' W 123°16'0 0.0
2018-Nov-06 08:01N 49°23' W 123°16'0 0.0
2018-Nov-06 07:58N 49°23' W 123°16'0 0.0
2018-Nov-06 07:28N 49°23' W 123°16'0 0.1
2018-Nov-06 07:01N 49°23' W 123°16'0 0.0
2018-Nov-06 06:58N 49°23' W 123°16'0 0.0
2018-Nov-06 06:28N 49°23' W 123°16'0 0.0
2018-Nov-06 06:01N 49°23' W 123°16'0 0.0
2018-Nov-06 05:58N 49°23' W 123°16'0 0.1
2018-Nov-06 05:28N 49°23' W 123°16'0 0.0
2018-Nov-06 05:01N 49°23' W 123°16'0 0.0
2018-Nov-06 04:58N 49°23' W 123°16'0 0.0
2018-Nov-06 04:25N 49°23' W 123°16'0 0.0
2018-Nov-06 04:03N 49°23' W 123°16'0 0.0
2018-Nov-06 04:00N 49°23' W 123°16'1 1.2
2018-Nov-06 03:31N 49°23' W 123°17'918.9
2018-Nov-06 03:03N 49°18' W 123°27'120.6
2018-Nov-06 03:00N 49°18' W 123°29'1120.9
2018-Nov-06 02:30N 49°15' W 123°44'920.0
2018-Nov-06 02:03N 49°12' W 123°57'0 5.7
2018-Nov-06 01:59N 49°12' W 123°57'0 0.2
2018-Nov-06 01:28N 49°12' W 123°57'1718.2
2018-Nov-06 00:30N 49°18' W 123°32'1111.3
2018-Nov-05 23:30N 49°23' W 123°16'0 0.0
2018-Nov-05 23:03N 49°23' W 123°16'0 0.0
2018-Nov-05 23:00N 49°23' W 123°16'1 2.7
2018-Nov-05 22:30N 49°22' W 123°18'818.9
2018-Nov-05 22:03N 49°18' W 123°29'119.3
2018-Nov-05 22:00N 49°17' W 123°31'1019.5
2018-Nov-05 21:31N 49°15' W 123°45'818.7
2018-Nov-05 21:03N 49°12' W 123°57'0 4.2
2018-Nov-05 21:00N 49°12' W 123°57'0 0.1
2018-Nov-05 20:30N 49°12' W 123°57'4 8.4
2018-Nov-05 20:03N 49°14' W 123°53'119.5
2018-Nov-05 20:01N 49°14' W 123°51'1020.4
2018-Nov-05 19:30N 49°18' W 123°37'920.2
2018-Nov-05 19:04N 49°20' W 123°23'120.2
2018-Nov-05 19:00N 49°20' W 123°21'4 8.6
2018-Nov-05 18:30N 49°23' W 123°16'0 0.0
2018-Nov-05 18:04N 49°23' W 123°16'0 3.6
2018-Nov-05 18:00N 49°23' W 123°16'917.2
2018-Nov-05 17:30N 49°18' W 123°27'920.8
2018-Nov-05 17:04N 49°15' W 123°41'121.0
2018-Nov-05 17:00N 49°15' W 123°42'1020.0
2018-Nov-05 16:30N 49°12' W 123°57'0 0.7
2018-Nov-05 15:59N 49°12' W 123°57'715.3
2018-Nov-05 15:30N 49°15' W 123°47'919.9
2018-Nov-05 15:03N 49°18' W 123°35'120.1
2018-Nov-05 15:00N 49°19' W 123°33'918.5
2018-Nov-05 14:30N 49°21' W 123°19'3 5.8
2018-Nov-05 14:03N 49°23' W 123°16'0 0.0
2018-Nov-05 13:30N 49°23' W 123°16'0 0.0
2018-Nov-05 13:03N 49°23' W 123°16'0 0.0
2018-Nov-05 13:00N 49°23' W 123°16'0 0.1
2018-Nov-05 12:30N 49°23' W 123°16'0 0.0
2018-Nov-05 12:03N 49°23' W 123°16'0 0.0
2018-Nov-05 12:00N 49°23' W 123°16'3 6.6
2018-Nov-05 11:30N 49°21' W 123°20'918.9
2018-Nov-05 11:03N 49°17' W 123°32'119.6
2018-Nov-05 11:00N 49°17' W 123°33'1019.4
2018-Nov-05 10:30N 49°13' W 123°48'511.9
2018-Nov-05 10:03N 49°10' W 123°53'0 0.0
2018-Nov-05 10:00N 49°10' W 123°53'0 0.0
2018-Nov-05 09:30N 49°10' W 123°53'0 0.0
2018-Nov-05 09:03N 49°10' W 123°53'0 0.0
2018-Nov-05 09:00N 49°10' W 123°53'0 0.5
2018-Nov-05 08:30N 49°10' W 123°53'715.2
2018-Nov-05 08:03N 49°12' W 123°43'120.3
2018-Nov-05 08:00N 49°12' W 123°42'1120.8
2018-Nov-05 07:30N 49°07' W 123°28'920.8
2018-Nov-05 07:03N 49°02' W 123°16'120.8
2018-Nov-05 07:00N 49°01' W 123°14'4 8.7
2018-Nov-05 06:30N 49°00' W 123°08'3 6.9
2018-Nov-05 06:03N 48°60' W 123°13'120.1
2018-Nov-05 06:00N 49°00' W 123°14'918.9
2018-Nov-05 05:30N 49°05' W 123°26'919.4
2018-Nov-05 05:03N 49°10' W 123°37'119.9
2018-Nov-05 05:00N 49°10' W 123°39'918.3
2018-Nov-05 04:30N 49°12' W 123°52'3 5.6
2018-Nov-05 04:02N 49°10' W 123°53'0 0.0
2018-Nov-05 03:56N 49°10' W 123°53'410.5
2018-Nov-05 03:30N 49°13' W 123°49'919.1
2018-Nov-05 03:03N 49°10' W 123°37'119.7
2018-Nov-05 03:00N 49°09' W 123°35'1020.0
2018-Nov-05 02:31N 49°05' W 123°22'919.3
2018-Nov-05 02:04N 49°00' W 123°11'119.2
2018-Nov-05 02:00N 49°00' W 123°09'1 1.8
2018-Nov-05 01:30N 49°00' W 123°08'4 9.3
2018-Nov-05 01:03N 48°59' W 123°14'118.4
2018-Nov-05 01:00N 48°59' W 123°15'1019.6
2018-Nov-05 00:30N 49°05' W 123°28'919.6
2018-Nov-05 00:03N 49°10' W 123°39'119.1
2018-Nov-05 00:00N 49°10' W 123°40'917.4
2018-Nov-04 23:30N 49°12' W 123°53'2 4.5
2018-Nov-04 23:03N 49°10' W 123°53'0 0.0
2018-Nov-04 22:57N 49°10' W 123°53'4 8.7
2018-Nov-04 22:31N 49°13' W 123°51'818.4
2018-Nov-04 22:03N 49°11' W 123°38'118.7
2018-Nov-04 22:01N 49°10' W 123°37'918.5
2018-Nov-04 21:31N 49°06' W 123°25'818.8
2018-Nov-04 21:04N 49°01' W 123°14'118.4
2018-Nov-04 21:01N 49°01' W 123°13'3 6.5
2018-Nov-04 20:30N 49°00' W 123°08'3 6.6
2018-Nov-04 20:03N 48°60' W 123°12'118.2
2018-Nov-04 20:00N 49°00' W 123°14'918.0
2018-Nov-04 19:30N 49°04' W 123°26'818.5
2018-Nov-04 19:03N 49°09' W 123°36'118.8
2018-Nov-04 19:00N 49°09' W 123°38'917.9
2018-Nov-04 18:30N 49°13' W 123°50'4 7.1
2018-Nov-04 17:57N 49°10' W 123°53'0 0.0
2018-Nov-04 15:24N 49°10' W 123°53'0 0.0
2018-Nov-04 14:57N 49°10' W 123°53'0 0.0
2018-Nov-04 14:15N 49°10' W 123°53'0 0.0
2018-Nov-04 13:54N 49°10' W 123°53'0 0.0
2018-Nov-04 12:30N 49°10' W 123°53'0 0.0
2018-Nov-04 12:00N 49°10' W 123°53'0 0.0
2018-Nov-04 11:24N 49°10' W 123°53'0 0.0
2018-Nov-04 11:03N 49°10' W 123°53'0 0.0
2018-Nov-04 11:00N 49°10' W 123°53'0 0.0
2018-Nov-04 10:30N 49°10' W 123°53'0 0.0
2018-Nov-04 03:09N 49°10' W 123°53'0 0.0
2018-Nov-04 02:46N 49°10' W 123°53'310.9
2018-Nov-04 02:31N 49°12' W 123°52'817.4
2018-Nov-04 02:03N 49°11' W 123°40'118.7
2018-Nov-04 02:00N 49°10' W 123°39'918.4
2018-Nov-04 01:31N 49°05' W 123°27'818.1
2018-Nov-04 01:03N 49°02' W 123°16'118.8
2018-Nov-04 01:00N 49°01' W 123°15'5 9.2
2018-Nov-04 00:30N 49°00' W 123°08'3 6.9
2018-Nov-04 00:03N 48°59' W 123°12'118.5
2018-Nov-04 00:00N 48°60' W 123°14'918.7
2018-Nov-03 23:30N 49°04' W 123°26'919.0
2018-Nov-03 23:03N 49°09' W 123°37'118.5
2018-Nov-03 23:00N 49°10' W 123°38'918.1
2018-Nov-03 22:30N 49°13' W 123°51'18 8.8
2018-Nov-03 20:30N 49°06' W 123°26'919.0
2018-Nov-03 20:03N 49°01' W 123°15'119.4
2018-Nov-03 20:00N 49°01' W 123°14'4 7.9
2018-Nov-03 19:30N 49°00' W 123°08'3 6.3
2018-Nov-03 19:03N 49°00' W 123°12'118.7
2018-Nov-03 19:00N 49°00' W 123°14'917.6
2018-Nov-03 18:30N 49°04' W 123°25'818.1
2018-Nov-03 18:03N 49°09' W 123°35'118.1
2018-Nov-03 18:00N 49°10' W 123°36'917.6
2018-Nov-03 17:30N 49°13' W 123°49'4 9.3
2018-Nov-03 17:02N 49°10' W 123°53'0 0.0
2018-Nov-03 16:56N 49°10' W 123°53'1 1.5
2018-Nov-03 16:30N 49°10' W 123°53'716.6
2018-Nov-03 16:04N 49°12' W 123°42'120.6
2018-Nov-03 16:00N 49°12' W 123°41'1020.0
2018-Nov-03 15:31N 49°07' W 123°27'920.5
2018-Nov-03 15:03N 49°02' W 123°16'118.6
2018-Nov-03 15:00N 49°01' W 123°14'4 8.5
2018-Nov-03 14:30N 49°00' W 123°08'3 6.1
2018-Nov-03 14:03N 49°00' W 123°12'118.2
2018-Nov-03 14:00N 49°00' W 123°13'917.8
2018-Nov-03 13:30N 49°04' W 123°25'818.3
2018-Nov-03 13:03N 49°09' W 123°36'117.9
2018-Nov-03 13:00N 49°09' W 123°37'917.9
2018-Nov-03 12:30N 49°13' W 123°50'4 8.7
2018-Nov-03 12:03N 49°10' W 123°53'0 0.0
2018-Nov-03 11:59N 49°10' W 123°53'0 0.0
2018-Nov-03 11:29N 49°10' W 123°53'0 0.0
2018-Nov-03 08:26N 49°10' W 123°53'0 0.0
2018-Nov-03 08:03N 49°10' W 123°53'0 0.0
2018-Nov-03 07:59N 49°10' W 123°53'511.3
2018-Nov-03 07:30N 49°13' W 123°47'920.5
2018-Nov-03 07:03N 49°10' W 123°34'120.5
2018-Nov-03 07:00N 49°09' W 123°33'1020.3
2018-Nov-03 06:30N 49°03' W 123°20'918.9
2018-Nov-03 06:03N 49°00' W 123°08'0 1.5
2018-Nov-03 06:00N 49°00' W 123°08'2 3.4
2018-Nov-03 05:30N 48°60' W 123°10'920.4
2018-Nov-03 05:03N 49°03' W 123°24'120.4
2018-Nov-03 05:00N 49°04' W 123°25'1121.1
2018-Nov-03 04:30N 49°10' W 123°38'817.4
2018-Nov-03 04:03N 49°13' W 123°49'121.3
2018-Nov-03 04:00N 49°13' W 123°50'3 3.1
2018-Nov-03 02:59N 49°10' W 123°53'816.2
2018-Nov-03 02:30N 49°12' W 123°42'919.4
2018-Nov-03 02:04N 49°08' W 123°30'119.8
2018-Nov-03 02:00N 49°07' W 123°29'1019.6
2018-Nov-03 01:30N 49°02' W 123°16'612.6
2018-Nov-03 01:03N 49°00' W 123°08'0 0.0
2018-Nov-03 01:00N 49°00' W 123°08'0 0.0
2018-Nov-03 00:30N 49°00' W 123°08'3 6.2
2018-Nov-03 00:03N 48°60' W 123°12'120.6
2018-Nov-03 00:00N 48°60' W 123°14'1121.0
2018-Nov-02 23:30N 49°05' W 123°28'1021.0
2018-Nov-02 23:03N 49°10' W 123°40'121.0
2018-Nov-02 23:00N 49°11' W 123°41'815.8
2018-Nov-02 22:30N 49°10' W 123°53'0 0.6
2018-Nov-02 22:03N 49°10' W 123°53'0 0.0
2018-Nov-02 21:55N 49°10' W 123°53'3 7.7
2018-Nov-02 21:30N 49°13' W 123°52'918.9
2018-Nov-02 21:03N 49°11' W 123°39'119.5
2018-Nov-02 21:00N 49°10' W 123°38'1019.8
2018-Nov-02 20:31N 49°05' W 123°24'920.0
2018-Nov-02 20:03N 49°01' W 123°13'120.7
2018-Nov-02 20:01N 49°00' W 123°11'2 4.3
2018-Nov-02 19:30N 49°00' W 123°08'2 4.0
2018-Nov-02 19:03N 49°00' W 123°11'120.6
2018-Nov-02 19:00N 49°00' W 123°12'1019.6
2018-Nov-02 18:30N 49°04' W 123°26'920.2
2018-Nov-02 18:03N 49°09' W 123°37'120.0
2018-Nov-02 18:00N 49°10' W 123°38'918.3
2018-Nov-02 17:30N 49°12' W 123°52'3 5.9
2018-Nov-02 17:01N 49°10' W 123°53'0 0.0
2018-Nov-02 16:47N 49°10' W 123°53'310.9
2018-Nov-02 16:30N 49°13' W 123°52'919.7
2018-Nov-02 16:03N 49°11' W 123°38'120.1
2018-Nov-02 16:00N 49°10' W 123°37'1020.5
2018-Nov-02 15:30N 49°05' W 123°23'920.3
2018-Nov-02 15:04N 49°00' W 123°11'120.5
2018-Nov-02 15:00N 49°00' W 123°10'2 2.1
2018-Nov-02 14:04N 48°60' W 123°13'118.1
2018-Nov-02 14:01N 48°60' W 123°14'917.1
2018-Nov-02 13:30N 49°04' W 123°26'818.3
2018-Nov-02 13:03N 49°09' W 123°36'118.2
2018-Nov-02 13:00N 49°09' W 123°37'917.9
2018-Nov-02 12:30N 49°13' W 123°50'4 7.8
2018-Nov-02 12:00N 49°10' W 123°53'0 0.0
2018-Nov-02 11:30N 49°10' W 123°53'3 7.4
2018-Nov-02 11:03N 49°12' W 123°57'0 6.8
2018-Nov-02 11:00N 49°12' W 123°57'0 0.2
2018-Nov-02 10:13N 49°12' W 123°57'0 0.0
2018-Nov-02 09:43N 49°12' W 123°57'0 0.0
2018-Nov-02 09:25N 49°12' W 123°57'0 0.0
2018-Nov-02 08:25N 49°12' W 123°57'0 0.0
2018-Nov-02 07:43N 49°12' W 123°57'0 0.0
2018-Nov-02 07:22N 49°12' W 123°57'0 0.0
2018-Nov-02 06:55N 49°12' W 123°57'0 0.0
2018-Nov-02 06:25N 49°12' W 123°57'0 0.0
2018-Nov-02 05:55N 49°12' W 123°57'0 0.0
2018-Nov-02 05:19N 49°12' W 123°57'0 0.0
2018-Nov-02 04:31N 49°12' W 123°57'0 0.0
2018-Nov-02 03:16N 49°12' W 123°57'0 0.0
2018-Nov-02 01:46N 49°12' W 123°57'0 0.0
2018-Nov-02 00:22N 49°12' W 123°57'0 0.0
2018-Nov-02 00:01N 49°12' W 123°57'0 0.0
2018-Nov-01 23:55N 49°12' W 123°57'0 0.0
2018-Nov-01 23:25N 49°12' W 123°57'0 0.0
2018-Nov-01 23:01N 49°12' W 123°57'0 0.0
2018-Nov-01 22:49N 49°12' W 123°57'0 0.0
2018-Nov-01 22:28N 49°12' W 123°57'0 0.0
2018-Nov-01 21:49N 49°12' W 123°57'0 0.0
2018-Nov-01 21:07N 49°12' W 123°57'0 0.0
2018-Nov-01 20:55N 49°12' W 123°57'0 0.0
2018-Nov-01 20:25N 49°12' W 123°57'0 0.0
2018-Nov-01 19:49N 49°12' W 123°57'0 0.0
2018-Nov-01 19:25N 49°12' W 123°57'0 0.0
2018-Nov-01 18:49N 49°12' W 123°57'0 0.0
2018-Nov-01 18:25N 49°12' W 123°57'0 0.0
2018-Nov-01 17:55N 49°12' W 123°57'0 0.0
2018-Nov-01 17:25N 49°12' W 123°57'0 0.0
2018-Nov-01 17:01N 49°12' W 123°57'0 0.0
2018-Nov-01 16:55N 49°12' W 123°57'0 0.0
2018-Nov-01 16:25N 49°12' W 123°57'0 0.0
2018-Nov-01 15:58N 49°12' W 123°57'0 0.0
2018-Nov-01 13:52N 49°12' W 123°57'0 0.0
2018-Nov-01 12:40N 49°12' W 123°57'0 0.0
2018-Nov-01 11:46N 49°12' W 123°57'0 0.0
2018-Nov-01 11:28N 49°12' W 123°57'0 0.0
2018-Nov-01 10:58N 49°12' W 123°57'0 0.0
2018-Nov-01 10:28N 49°12' W 123°57'0 0.0
2018-Nov-01 09:58N 49°12' W 123°57'0 0.0
2018-Nov-01 09:28N 49°12' W 123°57'0 0.0
2018-Nov-01 08:52N 49°12' W 123°57'0 0.0
2018-Nov-01 08:28N 49°12' W 123°57'0 0.0
2018-Nov-01 07:58N 49°12' W 123°57'0 0.0
2018-Nov-01 07:16N 49°12' W 123°57'0 0.0
2018-Nov-01 06:58N 49°12' W 123°57'0 0.0
2018-Nov-01 06:16N 49°12' W 123°57'0 0.0
2018-Nov-01 05:58N 49°12' W 123°57'0 0.0
2018-Nov-01 05:22N 49°12' W 123°57'0 0.0
2018-Nov-01 04:46N 49°12' W 123°57'0 0.0
2018-Nov-01 04:22N 49°12' W 123°57'0 0.0
2018-Nov-01 03:40N 49°12' W 123°57'0 0.0
2018-Nov-01 03:16N 49°12' W 123°57'0 0.0
2018-Nov-01 02:58N 49°12' W 123°57'  
Track history (hours):
 
Tides and Currents Weather Stations Pressure Air Temp Water Temp Dewpoint Dewpoint Depression Visibility Wind Speed Wind Dir Waves Ship Positions

Queen Of Coquitlam

Last reported at 2018-Nov-11 02:32 UTC. Time now 2018-Nov-15 19:39 UTC.
Position N 49°06' W 123°26'.

Length 139 m; draft 4 m.

Type: Passenger vessel. MMSI: 316001249.

Date/timePositionNaut miles runAvg speedWind from/ knotsBaromVisibWave heightAir tempDewpointWater temp
2018-Nov-11 02:32N 49°06' W 123°26'918.3
2018-Nov-11 02:03N 49°01' W 123°15'4 8.9
2018-Nov-11 01:33N 49°00' W 123°08'2 4.9
2018-Nov-11 01:02N 48°60' W 123°12'918.7
2018-Nov-11 00:32N 49°03' W 123°25'1019.1
2018-Nov-11 00:02N 49°09' W 123°37'918.6
2018-Nov-10 23:32N 49°13' W 123°49'4 8.4
2018-Nov-10 23:02N 49°10' W 123°53'0 0.2
2018-Nov-10 22:32N 49°10' W 123°53'714.5
2018-Nov-10 22:02N 49°12' W 123°43'1020.1
2018-Nov-10 21:32N 49°07' W 123°29'1020.2
2018-Nov-10 21:02N 49°02' W 123°16'611.1
2018-Nov-10 20:32N 49°00' W 123°08'0 1.0
2018-Nov-10 20:02N 49°00' W 123°09'1019.9
2018-Nov-10 19:32N 49°03' W 123°23'1021.1
2018-Nov-10 19:02N 49°09' W 123°36'1020.8
2018-Nov-10 18:32N 49°14' W 123°50'5 9.6
2018-Nov-10 18:02N 49°10' W 123°53'1 1.4
2018-Nov-10 17:32N 49°10' W 123°53'816.2
2018-Nov-10 17:02N 49°11' W 123°41'1020.1
2018-Nov-10 16:32N 49°07' W 123°27'1020.6
2018-Nov-10 16:03N 49°01' W 123°14'4 8.3
2018-Nov-10 15:32N 49°00' W 123°08'4 8.5
2018-Nov-10 15:02N 49°00' W 123°14'918.0
2018-Nov-10 14:32N 49°04' W 123°27'918.6
2018-Nov-10 14:02N 49°10' W 123°38'917.8
2018-Nov-10 13:32N 49°13' W 123°51'4 6.3
2018-Nov-10 12:58N 49°10' W 123°53'0 0.0
2018-Nov-10 11:16N 49°10' W 123°53'0 0.0
2018-Nov-10 10:28N 49°10' W 123°53'0 0.0
2018-Nov-10 09:58N 49°10' W 123°53'0 0.0
2018-Nov-10 09:28N 49°10' W 123°53'510.8
2018-Nov-10 09:03N 49°13' W 123°49'1020.1
2018-Nov-10 08:32N 49°10' W 123°35'1020.6
2018-Nov-10 08:02N 49°04' W 123°21'1019.0
2018-Nov-10 07:32N 49°00' W 123°08'0 0.5
2018-Nov-10 07:03N 49°00' W 123°08'815.2
2018-Nov-10 06:32N 49°01' W 123°20'1121.0
2018-Nov-10 06:02N 49°07' W 123°32'1020.9
2018-Nov-10 05:32N 49°13' W 123°46'510.8
2018-Nov-10 05:02N 49°10' W 123°53'0 0.0
2018-Nov-10 04:32N 49°10' W 123°53'510.5
2018-Nov-10 04:02N 49°13' W 123°48'1019.6
2018-Nov-10 03:32N 49°09' W 123°34'1019.7
2018-Nov-10 03:02N 49°04' W 123°21'918.8
2018-Nov-10 02:32N 49°00' W 123°08'0 0.5
2018-Nov-10 02:02N 49°00' W 123°08'3 5.7
2018-Nov-10 01:32N 48°60' W 123°12'1019.5
2018-Nov-10 01:02N 49°04' W 123°26'1020.9
2018-Nov-10 00:32N 49°10' W 123°39'1019.0
2018-Nov-10 00:02N 49°12' W 123°53'2 4.3
2018-Nov-09 23:31N 49°10' W 123°53'0 0.0
2018-Nov-09 22:54N 49°10' W 123°53'2 6.2
2018-Nov-09 22:32N 49°12' W 123°53'918.8
2018-Nov-09 22:02N 49°11' W 123°39'1020.1
2018-Nov-09 21:32N 49°06' W 123°25'1020.3
2018-Nov-09 21:02N 49°01' W 123°12'3 5.3
2018-Nov-09 20:33N 49°00' W 123°08'3 6.8
2018-Nov-09 20:02N 49°00' W 123°13'1020.3
2018-Nov-09 19:32N 49°05' W 123°27'1020.8
2018-Nov-09 19:02N 49°11' W 123°40'917.1
2018-Nov-09 18:32N 49°11' W 123°53'1 2.2
2018-Nov-09 18:01N 49°10' W 123°53'611.9
2018-Nov-09 17:32N 49°13' W 123°46'1019.9
2018-Nov-09 17:02N 49°08' W 123°32'1020.3
2018-Nov-09 16:32N 49°03' W 123°19'815.7
2018-Nov-09 16:03N 49°00' W 123°08'0 0.1
2018-Nov-09 15:33N 49°00' W 123°08'2 4.8
2018-Nov-09 15:02N 49°00' W 123°12'1019.4
2018-Nov-09 14:32N 49°04' W 123°25'1020.1
2018-Nov-09 14:02N 49°10' W 123°38'1019.0
2018-Nov-09 13:32N 49°13' W 123°51'3 1.6
2018-Nov-09 11:36N 49°10' W 123°53'0 0.0
2018-Nov-09 10:45N 49°10' W 123°53'0 0.0
2018-Nov-09 10:33N 49°10' W 123°53'5 9.1
2018-Nov-09 10:02N 49°13' W 123°49'1020.3
2018-Nov-09 09:32N 49°17' W 123°35'1020.2
2018-Nov-09 09:02N 49°21' W 123°20'3 6.5
2018-Nov-09 08:33N 49°23' W 123°16'2 4.5
2018-Nov-09 08:02N 49°21' W 123°19'1020.0
2018-Nov-09 07:32N 49°17' W 123°33'1020.7
2018-Nov-09 07:02N 49°14' W 123°48'6 7.1
2018-Nov-09 06:08N 49°12' W 123°57'0 1.6
2018-Nov-09 06:02N 49°12' W 123°57'816.7
2018-Nov-09 05:32N 49°15' W 123°46'1019.8
2018-Nov-09 05:02N 49°18' W 123°31'1019.2
2018-Nov-09 04:32N 49°23' W 123°18'1 2.6
2018-Nov-09 04:02N 49°23' W 123°16'3 6.1
2018-Nov-09 03:32N 49°21' W 123°20'1020.4
2018-Nov-09 03:02N 49°17' W 123°34'1020.9
2018-Nov-09 02:32N 49°14' W 123°50'510.6
2018-Nov-09 02:02N 49°12' W 123°57'0 0.0
2018-Nov-09 01:32N 49°12' W 123°57'714.3
2018-Nov-09 01:02N 49°15' W 123°48'1020.0
2018-Nov-09 00:33N 49°18' W 123°33'918.0
2018-Nov-09 00:02N 49°21' W 123°20'3 5.9
2018-Nov-08 23:33N 49°23' W 123°16'0 0.0
2018-Nov-08 23:03N 49°23' W 123°16'1 2.9
2018-Nov-08 22:32N 49°22' W 123°18'918.1
2018-Nov-08 22:02N 49°17' W 123°30'918.9
2018-Nov-08 21:32N 49°15' W 123°44'916.4
2018-Nov-08 20:59N 49°12' W 123°57'0 0.2
2018-Nov-08 20:23N 49°12' W 123°57'618.1
2018-Nov-08 20:02N 49°15' W 123°49'1020.2
2018-Nov-08 19:32N 49°18' W 123°34'917.7
2018-Nov-08 19:02N 49°20' W 123°21'4 8.0
2018-Nov-08 18:32N 49°23' W 123°16'2 3.9
2018-Nov-08 18:02N 49°22' W 123°19'1019.8
2018-Nov-08 17:32N 49°17' W 123°32'1021.0
2018-Nov-08 17:02N 49°14' W 123°48'713.3
2018-Nov-08 16:32N 49°12' W 123°57'0 0.1
2018-Nov-08 15:55N 49°12' W 123°57'616.2
2018-Nov-08 15:32N 49°15' W 123°49'1019.8
2018-Nov-08 15:02N 49°18' W 123°35'1019.6
2018-Nov-08 14:32N 49°20' W 123°20'3 6.7
2018-Nov-08 14:02N 49°23' W 123°16'0 0.0
2018-Nov-08 13:32N 49°23' W 123°16'0 0.0
2018-Nov-08 13:02N 49°23' W 123°16'0 0.0
2018-Nov-08 12:32N 49°23' W 123°16'0 0.0
2018-Nov-08 12:02N 49°23' W 123°16'0 0.0
2018-Nov-08 11:32N 49°23' W 123°16'0 0.0
2018-Nov-08 11:02N 49°23' W 123°16'0 0.0
2018-Nov-08 10:32N 49°23' W 123°16'0 0.0
2018-Nov-08 10:02N 49°23' W 123°16'0 0.0
2018-Nov-08 09:32N 49°23' W 123°16'0 0.0
2018-Nov-08 09:02N 49°23' W 123°16'0 0.0
2018-Nov-08 08:32N 49°23' W 123°16'0 0.0
2018-Nov-08 08:02N 49°23' W 123°16'0 0.0
2018-Nov-08 07:32N 49°23' W 123°16'0 0.1
2018-Nov-08 07:02N 49°23' W 123°16'0 0.1
2018-Nov-08 06:32N 49°23' W 123°16'0 0.1
2018-Nov-08 06:02N 49°23' W 123°16'0 0.1
2018-Nov-08 05:32N 49°23' W 123°16'0 0.0
2018-Nov-08 05:02N 49°23' W 123°16'0 0.0
2018-Nov-08 04:32N 49°23' W 123°16'0 0.0
2018-Nov-08 04:02N 49°23' W 123°16'1 1.5
2018-Nov-08 03:32N 49°23' W 123°17'918.6
2018-Nov-08 03:02N 49°17' W 123°28'1020.6
2018-Nov-08 02:32N 49°15' W 123°44'918.6
2018-Nov-08 02:03N 49°12' W 123°57'0 0.7
2018-Nov-08 01:32N 49°12' W 123°57'713.8
2018-Nov-08 01:02N 49°15' W 123°48'619.8
2018-Nov-08 00:43N 49°17' W 123°39'420.3
2018-Nov-08 00:32N 49°18' W 123°34'119.8
2018-Nov-08 00:29N 49°18' W 123°32'919.6
2018-Nov-08 00:02N 49°21' W 123°19'2 4.8
2018-Nov-07 23:33N 49°23' W 123°16'0 0.0
2018-Nov-07 23:03N 49°23' W 123°16'1 2.0
2018-Nov-07 22:32N 49°23' W 123°18'918.3
2018-Nov-07 22:02N 49°18' W 123°30'1019.0
2018-Nov-07 21:32N 49°15' W 123°44'918.6
2018-Nov-07 21:02N 49°12' W 123°57'0 0.6
2018-Nov-07 20:29N 49°12' W 123°57'511.0
2018-Nov-07 20:02N 49°14' W 123°51'1019.7
2018-Nov-07 19:32N 49°17' W 123°37'1019.8
2018-Nov-07 19:02N 49°19' W 123°22'5 9.7
2018-Nov-07 18:32N 49°23' W 123°16'1 1.5
2018-Nov-07 18:02N 49°23' W 123°17'1019.6
2018-Nov-07 17:32N 49°18' W 123°30'1121.0
2018-Nov-07 17:02N 49°15' W 123°45'816.1
2018-Nov-07 16:31N 49°12' W 123°57'0 0.4
2018-Nov-07 16:02N 49°12' W 123°57'918.2
2018-Nov-07 15:33N 49°16' W 123°45'1020.1
2018-Nov-07 15:03N 49°18' W 123°30'1019.5
2018-Nov-07 14:32N 49°23' W 123°17'1 1.5
2018-Nov-07 14:03N 49°23' W 123°16'0 0.0
2018-Nov-07 13:31N 49°23' W 123°16'0 0.0
2018-Nov-07 13:02N 49°23' W 123°16'0 0.0
2018-Nov-07 12:32N 49°23' W 123°16'0 0.0
2018-Nov-07 12:02N 49°23' W 123°16'0 0.0
2018-Nov-07 11:32N 49°23' W 123°16'0 0.0
2018-Nov-07 11:02N 49°23' W 123°16'0 0.0
2018-Nov-07 10:32N 49°23' W 123°16'0 0.0
2018-Nov-07 10:02N 49°23' W 123°16'0 0.0
2018-Nov-07 09:32N 49°23' W 123°16'0 0.0
2018-Nov-07 09:02N 49°23' W 123°16'0 0.0
2018-Nov-07 08:32N 49°23' W 123°16'0 0.0
2018-Nov-07 08:02N 49°23' W 123°16'0 0.0
2018-Nov-07 07:32N 49°23' W 123°16'0 0.1
2018-Nov-07 07:02N 49°23' W 123°16'0 0.1
2018-Nov-07 06:32N 49°23' W 123°16'0 0.1
2018-Nov-07 06:02N 49°23' W 123°16'0 0.1
2018-Nov-07 05:32N 49°23' W 123°16'0 0.0
2018-Nov-07 05:02N 49°23' W 123°16'0 0.0
2018-Nov-07 04:32N 49°23' W 123°16'0 0.0
2018-Nov-06 23:30N 49°23' W 123°16'0 0.0
2018-Nov-06 23:03N 49°23' W 123°16'0 0.0
2018-Nov-06 23:00N 49°23' W 123°16'1110.7
2018-Nov-06 22:01N 49°17' W 123°31'1019.0
2018-Nov-06 21:30N 49°15' W 123°45'818.9
2018-Nov-06 21:03N 49°12' W 123°57'1 7.6
2018-Nov-06 20:59N 49°12' W 123°57'0 0.1
2018-Nov-06 20:20N 49°12' W 123°57'413.0
2018-Nov-06 20:03N 49°14' W 123°53'119.8
2018-Nov-06 20:01N 49°14' W 123°51'1020.3
2018-Nov-06 19:30N 49°17' W 123°37'920.1
2018-Nov-06 19:03N 49°19' W 123°23'120.6
2018-Nov-06 19:00N 49°20' W 123°21'4 8.9
2018-Nov-06 18:30N 49°23' W 123°16'1 1.3
2018-Nov-06 18:03N 49°23' W 123°16'111.9
2018-Nov-06 18:00N 49°23' W 123°17'918.7
2018-Nov-06 17:30N 49°18' W 123°29'919.8
2018-Nov-06 17:03N 49°15' W 123°42'119.2
2018-Nov-06 17:00N 49°15' W 123°44'917.8
2018-Nov-06 16:28N 49°12' W 123°57'0 0.1
2018-Nov-06 16:03N 49°12' W 123°57'0 0.3
2018-Nov-06 15:59N 49°12' W 123°57'815.7
2018-Nov-06 15:30N 49°15' W 123°47'919.5
2018-Nov-06 15:03N 49°18' W 123°34'119.4
2018-Nov-06 15:00N 49°18' W 123°33'918.7
2018-Nov-06 14:30N 49°21' W 123°19'2 5.1
2018-Nov-06 14:03N 49°23' W 123°16'0 0.0
2018-Nov-06 14:00N 49°23' W 123°16'0 0.0
2018-Nov-06 13:25N 49°23' W 123°16'0 0.0
2018-Nov-06 13:01N 49°23' W 123°16'0 0.0
2018-Nov-06 12:58N 49°23' W 123°16'0 0.0
2018-Nov-06 12:25N 49°23' W 123°16'0 0.0
2018-Nov-06 12:01N 49°23' W 123°16'0 0.0
2018-Nov-06 11:58N 49°23' W 123°16'0 0.0
2018-Nov-06 11:28N 49°23' W 123°16'0 0.0
2018-Nov-06 11:01N 49°23' W 123°16'0 0.0
2018-Nov-06 10:58N 49°23' W 123°16'0 0.0
2018-Nov-06 10:25N 49°23' W 123°16'0 0.0
2018-Nov-06 10:01N 49°23' W 123°16'0 0.0
2018-Nov-06 09:55N 49°23' W 123°16'0 0.0
2018-Nov-06 09:25N 49°23' W 123°16'0 0.0
2018-Nov-06 09:01N 49°23' W 123°16'0 0.0
2018-Nov-06 08:58N 49°23' W 123°16'0 0.0
2018-Nov-06 08:28N 49°23' W 123°16'0 0.0
2018-Nov-06 08:01N 49°23' W 123°16'0 0.0
2018-Nov-06 07:58N 49°23' W 123°16'0 0.0
2018-Nov-06 07:28N 49°23' W 123°16'0 0.1
2018-Nov-06 07:01N 49°23' W 123°16'0 0.0
2018-Nov-06 06:58N 49°23' W 123°16'0 0.0
2018-Nov-06 06:28N 49°23' W 123°16'0 0.0
2018-Nov-06 06:01N 49°23' W 123°16'0 0.0
2018-Nov-06 05:58N 49°23' W 123°16'0 0.1
2018-Nov-06 05:28N 49°23' W 123°16'0 0.0
2018-Nov-06 05:01N 49°23' W 123°16'0 0.0
2018-Nov-06 04:58N 49°23' W 123°16'0 0.0
2018-Nov-06 04:25N 49°23' W 123°16'0 0.0
2018-Nov-06 04:03N 49°23' W 123°16'0 0.0
2018-Nov-06 04:00N 49°23' W 123°16'1 1.2
2018-Nov-06 03:31N 49°23' W 123°17'918.9
2018-Nov-06 03:03N 49°18' W 123°27'120.6
2018-Nov-06 03:00N 49°18' W 123°29'1120.9
2018-Nov-06 02:30N 49°15' W 123°44'920.0
2018-Nov-06 02:03N 49°12' W 123°57'0 5.7
2018-Nov-06 01:59N 49°12' W 123°57'0 0.2
2018-Nov-06 01:28N 49°12' W 123°57'1718.2
2018-Nov-06 00:30N 49°18' W 123°32'1111.3
2018-Nov-05 23:30N 49°23' W 123°16'0 0.0
2018-Nov-05 23:03N 49°23' W 123°16'0 0.0
2018-Nov-05 23:00N 49°23' W 123°16'1 2.7
2018-Nov-05 22:30N 49°22' W 123°18'818.9
2018-Nov-05 22:03N 49°18' W 123°29'119.3
2018-Nov-05 22:00N 49°17' W 123°31'1019.5
2018-Nov-05 21:31N 49°15' W 123°45'818.7
2018-Nov-05 21:03N 49°12' W 123°57'0 4.2
2018-Nov-05 21:00N 49°12' W 123°57'0 0.1
2018-Nov-05 20:30N 49°12' W 123°57'4 8.4
2018-Nov-05 20:03N 49°14' W 123°53'119.5
2018-Nov-05 20:01N 49°14' W 123°51'1020.4
2018-Nov-05 19:30N 49°18' W 123°37'920.2
2018-Nov-05 19:04N 49°20' W 123°23'120.2
2018-Nov-05 19:00N 49°20' W 123°21'4 8.6
2018-Nov-05 18:30N 49°23' W 123°16'0 0.0
2018-Nov-05 18:04N 49°23' W 123°16'0 3.6
2018-Nov-05 18:00N 49°23' W 123°16'917.2
2018-Nov-05 17:30N 49°18' W 123°27'920.8
2018-Nov-05 17:04N 49°15' W 123°41'121.0
2018-Nov-05 17:00N 49°15' W 123°42'1020.0
2018-Nov-05 16:30N 49°12' W 123°57'0 0.7
2018-Nov-05 15:59N 49°12' W 123°57'715.3
2018-Nov-05 15:30N 49°15' W 123°47'919.9
2018-Nov-05 15:03N 49°18' W 123°35'120.1
2018-Nov-05 15:00N 49°19' W 123°33'918.5
2018-Nov-05 14:30N 49°21' W 123°19'3 5.8
2018-Nov-05 14:03N 49°23' W 123°16'0 0.0
2018-Nov-05 13:30N 49°23' W 123°16'0 0.0
2018-Nov-05 13:03N 49°23' W 123°16'0 0.0
2018-Nov-05 13:00N 49°23' W 123°16'0 0.1
2018-Nov-05 12:30N 49°23' W 123°16'0 0.0
2018-Nov-05 12:03N 49°23' W 123°16'0 0.0
2018-Nov-05 12:00N 49°23' W 123°16'3 6.6
2018-Nov-05 11:30N 49°21' W 123°20'918.9
2018-Nov-05 11:03N 49°17' W 123°32'119.6
2018-Nov-05 11:00N 49°17' W 123°33'1019.4
2018-Nov-05 10:30N 49°13' W 123°48'511.9
2018-Nov-05 10:03N 49°10' W 123°53'0 0.0
2018-Nov-05 10:00N 49°10' W 123°53'0 0.0
2018-Nov-05 09:30N 49°10' W 123°53'0 0.0
2018-Nov-05 09:03N 49°10' W 123°53'0 0.0
2018-Nov-05 09:00N 49°10' W 123°53'0 0.5
2018-Nov-05 08:30N 49°10' W 123°53'715.2
2018-Nov-05 08:03N 49°12' W 123°43'120.3
2018-Nov-05 08:00N 49°12' W 123°42'1120.8
2018-Nov-05 07:30N 49°07' W 123°28'920.8
2018-Nov-05 07:03N 49°02' W 123°16'120.8
2018-Nov-05 07:00N 49°01' W 123°14'4 8.7
2018-Nov-05 06:30N 49°00' W 123°08'3 6.9
2018-Nov-05 06:03N 48°60' W 123°13'120.1
2018-Nov-05 06:00N 49°00' W 123°14'918.9
2018-Nov-05 05:30N 49°05' W 123°26'919.4
2018-Nov-05 05:03N 49°10' W 123°37'119.9
2018-Nov-05 05:00N 49°10' W 123°39'918.3
2018-Nov-05 04:30N 49°12' W 123°52'3 5.6
2018-Nov-05 04:02N 49°10' W 123°53'0 0.0
2018-Nov-05 03:56N 49°10' W 123°53'410.5
2018-Nov-05 03:30N 49°13' W 123°49'919.1
2018-Nov-05 03:03N 49°10' W 123°37'119.7
2018-Nov-05 03:00N 49°09' W 123°35'1020.0
2018-Nov-05 02:31N 49°05' W 123°22'919.3
2018-Nov-05 02:04N 49°00' W 123°11'119.2
2018-Nov-05 02:00N 49°00' W 123°09'1 1.8
2018-Nov-05 01:30N 49°00' W 123°08'4 9.3
2018-Nov-05 01:03N 48°59' W 123°14'118.4
2018-Nov-05 01:00N 48°59' W 123°15'1019.6
2018-Nov-05 00:30N 49°05' W 123°28'919.6
2018-Nov-05 00:03N 49°10' W 123°39'119.1
2018-Nov-05 00:00N 49°10' W 123°40'917.4
2018-Nov-04 23:30N 49°12' W 123°53'2 4.5
2018-Nov-04 23:03N 49°10' W 123°53'0 0.0
2018-Nov-04 22:57N 49°10' W 123°53'4 8.7
2018-Nov-04 22:31N 49°13' W 123°51'818.4
2018-Nov-04 22:03N 49°11' W 123°38'118.7
2018-Nov-04 22:01N 49°10' W 123°37'918.5
2018-Nov-04 21:31N 49°06' W 123°25'818.8
2018-Nov-04 21:04N 49°01' W 123°14'118.4
2018-Nov-04 21:01N 49°01' W 123°13'3 6.5
2018-Nov-04 20:30N 49°00' W 123°08'3 6.6
2018-Nov-04 20:03N 48°60' W 123°12'118.2
2018-Nov-04 20:00N 49°00' W 123°14'918.0
2018-Nov-04 19:30N 49°04' W 123°26'818.5
2018-Nov-04 19:03N 49°09' W 123°36'118.8
2018-Nov-04 19:00N 49°09' W 123°38'917.9
2018-Nov-04 18:30N 49°13' W 123°50'4 7.1
2018-Nov-04 17:57N 49°10' W 123°53'0 0.0
2018-Nov-04 15:24N 49°10' W 123°53'0 0.0
2018-Nov-04 14:57N 49°10' W 123°53'0 0.0
2018-Nov-04 14:15N 49°10' W 123°53'0 0.0
2018-Nov-04 13:54N 49°10' W 123°53'0 0.0
2018-Nov-04 12:30N 49°10' W 123°53'0 0.0
2018-Nov-04 12:00N 49°10' W 123°53'0 0.0
2018-Nov-04 11:24N 49°10' W 123°53'0 0.0
2018-Nov-04 11:03N 49°10' W 123°53'0 0.0
2018-Nov-04 11:00N 49°10' W 123°53'0 0.0
2018-Nov-04 10:30N 49°10' W 123°53'0 0.0
2018-Nov-04 03:09N 49°10' W 123°53'0 0.0
2018-Nov-04 02:46N 49°10' W 123°53'310.9
2018-Nov-04 02:31N 49°12' W 123°52'817.4
2018-Nov-04 02:03N 49°11' W 123°40'118.7
2018-Nov-04 02:00N 49°10' W 123°39'918.4
2018-Nov-04 01:31N 49°05' W 123°27'818.1
2018-Nov-04 01:03N 49°02' W 123°16'118.8
2018-Nov-04 01:00N 49°01' W 123°15'5 9.2
2018-Nov-04 00:30N 49°00' W 123°08'3 6.9
2018-Nov-04 00:03N 48°59' W 123°12'118.5
2018-Nov-04 00:00N 48°60' W 123°14'918.7
2018-Nov-03 23:30N 49°04' W 123°26'919.0
2018-Nov-03 23:03N 49°09' W 123°37'118.5
2018-Nov-03 23:00N 49°10' W 123°38'918.1
2018-Nov-03 22:30N 49°13' W 123°51'18 8.8
2018-Nov-03 20:30N 49°06' W 123°26'919.0
2018-Nov-03 20:03N 49°01' W 123°15'119.4
2018-Nov-03 20:00N 49°01' W 123°14'4 7.9
2018-Nov-03 19:30N 49°00' W 123°08'3 6.3
2018-Nov-03 19:03N 49°00' W 123°12'118.7
2018-Nov-03 19:00N 49°00' W 123°14'917.6
2018-Nov-03 18:30N 49°04' W 123°25'818.1
2018-Nov-03 18:03N 49°09' W 123°35'118.1
2018-Nov-03 18:00N 49°10' W 123°36'917.6
2018-Nov-03 17:30N 49°13' W 123°49'4 9.3
2018-Nov-03 17:02N 49°10' W 123°53'0 0.0
2018-Nov-03 16:56N 49°10' W 123°53'1 1.5
2018-Nov-03 16:30N 49°10' W 123°53'716.6
2018-Nov-03 16:04N 49°12' W 123°42'120.6
2018-Nov-03 16:00N 49°12' W 123°41'1020.0
2018-Nov-03 15:31N 49°07' W 123°27'920.5
2018-Nov-03 15:03N 49°02' W 123°16'118.6
2018-Nov-03 15:00N 49°01' W 123°14'4 8.5
2018-Nov-03 14:30N 49°00' W 123°08'3 6.1
2018-Nov-03 14:03N 49°00' W 123°12'118.2
2018-Nov-03 14:00N 49°00' W 123°13'917.8
2018-Nov-03 13:30N 49°04' W 123°25'818.3
2018-Nov-03 13:03N 49°09' W 123°36'117.9
2018-Nov-03 13:00N 49°09' W 123°37'917.9
2018-Nov-03 12:30N 49°13' W 123°50'4 8.7
2018-Nov-03 12:03N 49°10' W 123°53'0 0.0
2018-Nov-03 11:59N 49°10' W 123°53'0 0.0
2018-Nov-03 11:29N 49°10' W 123°53'0 0.0
2018-Nov-03 08:26N 49°10' W 123°53'0 0.0
2018-Nov-03 08:03N 49°10' W 123°53'0 0.0
2018-Nov-03 07:59N 49°10' W 123°53'511.3
2018-Nov-03 07:30N 49°13' W 123°47'920.5
2018-Nov-03 07:03N 49°10' W 123°34'120.5
2018-Nov-03 07:00N 49°09' W 123°33'1020.3
2018-Nov-03 06:30N 49°03' W 123°20'918.9
2018-Nov-03 06:03N 49°00' W 123°08'0 1.5
2018-Nov-03 06:00N 49°00' W 123°08'2 3.4
2018-Nov-03 05:30N 48°60' W 123°10'920.4
2018-Nov-03 05:03N 49°03' W 123°24'120.4
2018-Nov-03 05:00N 49°04' W 123°25'1121.1
2018-Nov-03 04:30N 49°10' W 123°38'817.4
2018-Nov-03 04:03N 49°13' W 123°49'121.3
2018-Nov-03 04:00N 49°13' W 123°50'3 3.1
2018-Nov-03 02:59N 49°10' W 123°53'816.2
2018-Nov-03 02:30N 49°12' W 123°42'919.4
2018-Nov-03 02:04N 49°08' W 123°30'119.8
2018-Nov-03 02:00N 49°07' W 123°29'1019.6
2018-Nov-03 01:30N 49°02' W 123°16'612.6
2018-Nov-03 01:03N 49°00' W 123°08'0 0.0
2018-Nov-03 01:00N 49°00' W 123°08'0 0.0
2018-Nov-03 00:30N 49°00' W 123°08'3 6.2
2018-Nov-03 00:03N 48°60' W 123°12'120.6
2018-Nov-03 00:00N 48°60' W 123°14'1121.0
2018-Nov-02 23:30N 49°05' W 123°28'1021.0
2018-Nov-02 23:03N 49°10' W 123°40'121.0
2018-Nov-02 23:00N 49°11' W 123°41'815.8
2018-Nov-02 22:30N 49°10' W 123°53'0 0.6
2018-Nov-02 22:03N 49°10' W 123°53'0 0.0
2018-Nov-02 21:55N 49°10' W 123°53'3 7.7
2018-Nov-02 21:30N 49°13' W 123°52'918.9
2018-Nov-02 21:03N 49°11' W 123°39'119.5
2018-Nov-02 21:00N 49°10' W 123°38'1019.8
2018-Nov-02 20:31N 49°05' W 123°24'920.0
2018-Nov-02 20:03N 49°01' W 123°13'120.7
2018-Nov-02 20:01N 49°00' W 123°11'2 4.3
2018-Nov-02 19:30N 49°00' W 123°08'2 4.0
2018-Nov-02 19:03N 49°00' W 123°11'120.6
2018-Nov-02 19:00N 49°00' W 123°12'1019.6
2018-Nov-02 18:30N 49°04' W 123°26'920.2
2018-Nov-02 18:03N 49°09' W 123°37'120.0
2018-Nov-02 18:00N 49°10' W 123°38'918.3
2018-Nov-02 17:30N 49°12' W 123°52'3 5.9
2018-Nov-02 17:01N 49°10' W 123°53'0 0.0
2018-Nov-02 16:47N 49°10' W 123°53'310.9
2018-Nov-02 16:30N 49°13' W 123°52'919.7
2018-Nov-02 16:03N 49°11' W 123°38'120.1
2018-Nov-02 16:00N 49°10' W 123°37'1020.5
2018-Nov-02 15:30N 49°05' W 123°23'920.3
2018-Nov-02 15:04N 49°00' W 123°11'120.5
2018-Nov-02 15:00N 49°00' W 123°10'2 2.1
2018-Nov-02 14:04N 48°60' W 123°13'118.1
2018-Nov-02 14:01N 48°60' W 123°14'917.1
2018-Nov-02 13:30N 49°04' W 123°26'818.3
2018-Nov-02 13:03N 49°09' W 123°36'118.2
2018-Nov-02 13:00N 49°09' W 123°37'917.9
2018-Nov-02 12:30N 49°13' W 123°50'4 7.8
2018-Nov-02 12:00N 49°10' W 123°53'0 0.0
2018-Nov-02 11:30N 49°10' W 123°53'3 7.4
2018-Nov-02 11:03N 49°12' W 123°57'0 6.8
2018-Nov-02 11:00N 49°12' W 123°57'0 0.2
2018-Nov-02 10:13N 49°12' W 123°57'0 0.0
2018-Nov-02 09:43N 49°12' W 123°57'0 0.0
2018-Nov-02 09:25N 49°12' W 123°57'0 0.0
2018-Nov-02 08:25N 49°12' W 123°57'0 0.0
2018-Nov-02 07:43N 49°12' W 123°57'0 0.0
2018-Nov-02 07:22N 49°12' W 123°57'0 0.0
2018-Nov-02 06:55N 49°12' W 123°57'0 0.0
2018-Nov-02 06:25N 49°12' W 123°57'0 0.0
2018-Nov-02 05:55N 49°12' W 123°57'0 0.0
2018-Nov-02 05:19N 49°12' W 123°57'0 0.0
2018-Nov-02 04:31N 49°12' W 123°57'0 0.0
2018-Nov-02 03:16N 49°12' W 123°57'0 0.0
2018-Nov-02 01:46N 49°12' W 123°57'0 0.0
2018-Nov-02 00:22N 49°12' W 123°57'0 0.0
2018-Nov-02 00:01N 49°12' W 123°57'0 0.0
2018-Nov-01 23:55N 49°12' W 123°57'0 0.0
2018-Nov-01 23:25N 49°12' W 123°57'0 0.0
2018-Nov-01 23:01N 49°12' W 123°57'0 0.0
2018-Nov-01 22:49N 49°12' W 123°57'0 0.0
2018-Nov-01 22:28N 49°12' W 123°57'0 0.0
2018-Nov-01 21:49N 49°12' W 123°57'0 0.0
2018-Nov-01 21:07N 49°12' W 123°57'0 0.0
2018-Nov-01 20:55N 49°12' W 123°57'0 0.0
2018-Nov-01 20:25N 49°12' W 123°57'0 0.0
2018-Nov-01 19:49N 49°12' W 123°57'0 0.0
2018-Nov-01 19:25N 49°12' W 123°57'0 0.0
2018-Nov-01 18:49N 49°12' W 123°57'0 0.0
2018-Nov-01 18:25N 49°12' W 123°57'0 0.0
2018-Nov-01 17:55N 49°12' W 123°57'0 0.0
2018-Nov-01 17:25N 49°12' W 123°57'0 0.0
2018-Nov-01 17:01N 49°12' W 123°57'0 0.0
2018-Nov-01 16:55N 49°12' W 123°57'0 0.0
2018-Nov-01 16:25N 49°12' W 123°57'0 0.0
2018-Nov-01 15:58N 49°12' W 123°57'0 0.0
2018-Nov-01 13:52N 49°12' W 123°57'0 0.0
2018-Nov-01 12:40N 49°12' W 123°57'0 0.0
2018-Nov-01 11:46N 49°12' W 123°57'0 0.0
2018-Nov-01 11:28N 49°12' W 123°57'0 0.0
2018-Nov-01 10:58N 49°12' W 123°57'0 0.0
2018-Nov-01 10:28N 49°12' W 123°57'0 0.0
2018-Nov-01 09:58N 49°12' W 123°57'0 0.0
2018-Nov-01 09:28N 49°12' W 123°57'0 0.0
2018-Nov-01 08:52N 49°12' W 123°57'0 0.0
2018-Nov-01 08:28N 49°12' W 123°57'0 0.0
2018-Nov-01 07:58N 49°12' W 123°57'0 0.0
2018-Nov-01 07:16N 49°12' W 123°57'0 0.0
2018-Nov-01 06:58N 49°12' W 123°57'0 0.0
2018-Nov-01 06:16N 49°12' W 123°57'0 0.0
2018-Nov-01 05:58N 49°12' W 123°57'0 0.0
2018-Nov-01 05:22N 49°12' W 123°57'0 0.0
2018-Nov-01 04:46N 49°12' W 123°57'0 0.0
2018-Nov-01 04:22N 49°12' W 123°57'0 0.0
2018-Nov-01 03:40N 49°12' W 123°57'0 0.0
2018-Nov-01 03:16N 49°12' W 123°57'0 0.0
2018-Nov-01 02:58N 49°12' W 123°57'  

Dump ship's entire track history